Airfield :
LOGIN :

Register | Disclaimer

   EN    FR    IT 

 










Legend :    VFR   Marginal VFR   IFR   Intensive IFR   Very Intensive IFR
Visi :
Ceiling :
>= 8 km
>= 3000ft
5 to 8 km
1000 to 3000 ft
1500m to 5 km
500 to 1000 ft
800 to 1500m
200 to 500 ft
< 800m
< 200 ft
Symbols :   Thunderstorms  Fog  Heavy snow  Heavy precipitations  Wind > 20 kt
SIGMETs :     Misc.  Thunderstorms  Icing  Turbulence  Mountain Waves  Volcanic Ashes






- Airport Elevation : 1300 ft
- IATA code : LIG


LFBL - Limoges

CURRENT METAR :
  • 190000Z AUTO 04002KT CAVOK 23/16 Q1019 NOSIG

EXPIRED METARs :
  • 182330Z AUTO 02003KT CAVOK 23/16 Q1019 NOSIG
  • 182300Z AUTO 03002KT CAVOK 24/16 Q1019 NOSIG
  • 182230Z AUTO 02003KT CAVOK 24/16 Q1020 NOSIG
  • 182200Z AUTO 03004KT CAVOK 25/16 Q1020 NOSIG
  • 182130Z AUTO 01005KT CAVOK 25/15 Q1020 NOSIG
  • 182100Z AUTO 35005KT 320V020 CAVOK 26/15 Q1020 NOSIG
  • 182030Z AUTO 35005KT CAVOK 26/15 Q1020 NOSIG
  • 182000Z AUTO 33005KT CAVOK 26/16 Q1020 NOSIG
  • 181930Z AUTO 33004KT CAVOK 27/15 Q1019 NOSIG
  • 181900Z AUTO 32003KT CAVOK 28/15 Q1019 NOSIG

TAF TAF LFBL
Valid from the 19 at 00:00 until the 20 at 00:00 UTC


182300Z 1900/1924 05005KT CAVOK
TEMPO 1902/1908 4500 -SHRA BKN060TCU
PROB30
TEMPO 1902/1908 VRB15G25KT 1500 -TSRA BKN050CB
TEMPO 1912/1918 4500 -SHRA BKN080TCU
PROB30
TEMPO 1912/1918 2500 -TSRA BKN060CB
BECMG 1920/1922 32010KT
ATIS : +33 5 55 48 40 37



MET'MAP, your aeronautical weather chart ! - Copyright ORBIFLY December 2007 - Disclaimer

ORBIFLY MET'MAP TEAM :

Programming & Development : Alexandra Zaïnal
Original concept : Baudouin d'Aumeries
Technical & hardware support : Manuel Goepfert
Assistance : Marc-Olivier Méhu




SOURCES & CREDITS :

   NOAA